sensor_id;sensor_type;location;lat;lon;timestamp;P1;durP1;ratioP1;P2;durP2;ratioP2
55879;SDS011;41802;51.564;-1.838;2023-06-04T00:00:35;17.38;;;7.00;;
55879;SDS011;41802;51.564;-1.838;2023-06-04T00:03:03;16.38;;;7.00;;
55879;SDS011;41802;51.564;-1.838;2023-06-04T00:05:31;21.45;;;7.10;;
55879;SDS011;41802;51.564;-1.838;2023-06-04T00:08:00;22.30;;;8.00;;
55879;SDS011;41802;51.564;-1.838;2023-06-04T00:10:29;16.80;;;7.85;;
55879;SDS011;41802;51.564;-1.838;2023-06-04T00:12:59;20.90;;;7.72;;
55879;SDS011;41802;51.564;-1.838;2023-06-04T00:15:27;25.98;;;7.70;;
55879;SDS011;41802;51.564;-1.838;2023-06-04T00:17:54;23.20;;;8.65;;
55879;SDS011;41802;51.564;-1.838;2023-06-04T00:20:23;25.47;;;8.57;;
55879;SDS011;41802;51.564;-1.838;2023-06-04T00:22:50;22.27;;;7.95;;
55879;SDS011;41802;51.564;-1.838;2023-06-04T00:25:20;20.23;;;7.72;;
55879;SDS011;41802;51.564;-1.838;2023-06-04T00:27:47;25.92;;;7.88;;
55879;SDS011;41802;51.564;-1.838;2023-06-04T00:30:15;24.17;;;7.93;;
55879;SDS011;41802;51.564;-1.838;2023-06-04T00:32:47;25.37;;;7.90;;
55879;SDS011;41802;51.564;-1.838;2023-06-04T00:35:14;20.95;;;8.13;;
55879;SDS011;41802;51.564;-1.838;2023-06-04T00:37:42;24.20;;;8.85;;
55879;SDS011;41802;51.564;-1.838;2023-06-04T00:40:10;19.73;;;7.45;;
55879;SDS011;41802;51.564;-1.838;2023-06-04T00:42:40;20.02;;;6.93;;
55879;SDS011;41802;51.564;-1.838;2023-06-04T00:45:08;18.37;;;7.00;;
55879;SDS011;41802;51.564;-1.838;2023-06-04T00:47:36;19.67;;;6.90;;
55879;SDS011;41802;51.564;-1.838;2023-06-04T00:50:04;19.88;;;7.05;;
55879;SDS011;41802;51.564;-1.838;2023-06-04T00:52:33;21.63;;;6.53;;
55879;SDS011;41802;51.564;-1.838;2023-06-04T00:55:05;24.02;;;7.38;;
55879;SDS011;41802;51.564;-1.838;2023-06-04T00:57:34;20.43;;;7.37;;
55879;SDS011;41802;51.564;-1.838;2023-06-04T01:00:03;15.57;;;5.88;;
55879;SDS011;41802;51.564;-1.838;2023-06-04T01:02:32;16.17;;;6.50;;
55879;SDS011;41802;51.564;-1.838;2023-06-04T01:05:11;18.55;;;6.00;;
55879;SDS011;41802;51.564;-1.838;2023-06-04T01:07:43;20.45;;;6.40;;
55879;SDS011;41802;51.564;-1.838;2023-06-04T01:10:13;22.77;;;6.47;;
55879;SDS011;41802;51.564;-1.838;2023-06-04T01:12:41;21.35;;;5.72;;
55879;SDS011;41802;51.564;-1.838;2023-06-04T01:15:10;24.77;;;6.78;;
55879;SDS011;41802;51.564;-1.838;2023-06-04T01:17:39;18.67;;;5.40;;
55879;SDS011;41802;51.564;-1.838;2023-06-04T01:23:09;19.93;;;5.73;;
55879;SDS011;41802;51.564;-1.838;2023-06-04T01:25:41;15.90;;;4.75;;
55879;SDS011;41802;51.564;-1.838;2023-06-04T01:28:13;12.38;;;4.65;;
55879;SDS011;41802;51.564;-1.838;2023-06-04T01:30:44;17.55;;;5.05;;
55879;SDS011;41802;51.564;-1.838;2023-06-04T01:33:14;18.17;;;5.13;;
55879;SDS011;41802;51.564;-1.838;2023-06-04T01:35:42;17.30;;;5.50;;
55879;SDS011;41802;51.564;-1.838;2023-06-04T01:38:10;15.68;;;5.05;;
55879;SDS011;41802;51.564;-1.838;2023-06-04T01:40:38;21.80;;;5.30;;
55879;SDS011;41802;51.564;-1.838;2023-06-04T01:43:07;16.27;;;5.40;;
55879;SDS011;41802;51.564;-1.838;2023-06-04T01:45:35;20.45;;;4.43;;
55879;SDS011;41802;51.564;-1.838;2023-06-04T01:48:05;15.03;;;4.33;;
55879;SDS011;41802;51.564;-1.838;2023-06-04T01:50:33;16.25;;;5.10;;
55879;SDS011;41802;51.564;-1.838;2023-06-04T01:53:01;16.10;;;4.88;;
55879;SDS011;41802;51.564;-1.838;2023-06-04T01:55:29;18.48;;;5.55;;
55879;SDS011;41802;51.564;-1.838;2023-06-04T01:58:00;16.08;;;4.80;;
55879;SDS011;41802;51.564;-1.838;2023-06-04T02:00:28;14.83;;;4.70;;
55879;SDS011;41802;51.564;-1.838;2023-06-04T02:02:58;16.95;;;4.43;;
55879;SDS011;41802;51.564;-1.838;2023-06-04T02:05:27;24.00;;;5.68;;
55879;SDS011;41802;51.564;-1.838;2023-06-04T02:07:56;13.82;;;4.07;;
55879;SDS011;41802;51.564;-1.838;2023-06-04T02:10:28;13.82;;;4.03;;
55879;SDS011;41802;51.564;-1.838;2023-06-04T02:12:56;14.83;;;4.47;;
55879;SDS011;41802;51.564;-1.838;2023-06-04T02:15:25;17.40;;;4.82;;
55879;SDS011;41802;51.564;-1.838;2023-06-04T02:17:55;14.13;;;3.80;;
55879;SDS011;41802;51.564;-1.838;2023-06-04T02:20:24;14.70;;;4.18;;
55879;SDS011;41802;51.564;-1.838;2023-06-04T02:22:55;15.70;;;4.68;;
55879;SDS011;41802;51.564;-1.838;2023-06-04T02:25:24;14.40;;;3.90;;
55879;SDS011;41802;51.564;-1.838;2023-06-04T02:27:51;17.85;;;4.25;;
55879;SDS011;41802;51.564;-1.838;2023-06-04T02:30:19;14.70;;;4.63;;
55879;SDS011;41802;51.564;-1.838;2023-06-04T02:32:47;18.27;;;4.38;;
55879;SDS011;41802;51.564;-1.838;2023-06-04T02:35:18;14.63;;;4.20;;
55879;SDS011;41802;51.564;-1.838;2023-06-04T02:37:49;15.07;;;4.53;;
55879;SDS011;41802;51.564;-1.838;2023-06-04T02:40:19;13.38;;;4.15;;
55879;SDS011;41802;51.564;-1.838;2023-06-04T02:42:49;18.38;;;4.90;;
55879;SDS011;41802;51.564;-1.838;2023-06-04T02:45:16;20.90;;;5.05;;
55879;SDS011;41802;51.564;-1.838;2023-06-04T02:47:44;13.75;;;4.85;;
55879;SDS011;41802;51.564;-1.838;2023-06-04T02:50:12;14.27;;;4.70;;
55879;SDS011;41802;51.564;-1.838;2023-06-04T02:52:41;15.82;;;5.03;;
55879;SDS011;41802;51.564;-1.838;2023-06-04T02:55:10;14.18;;;5.30;;
55879;SDS011;41802;51.564;-1.838;2023-06-04T02:57:40;19.83;;;4.95;;
55879;SDS011;41802;51.564;-1.838;2023-06-04T03:00:09;21.23;;;5.05;;
55879;SDS011;41802;51.564;-1.838;2023-06-04T03:02:40;17.97;;;6.00;;
55879;SDS011;41802;51.564;-1.838;2023-06-04T03:05:09;19.30;;;5.88;;
55879;SDS011;41802;51.564;-1.838;2023-06-04T03:07:42;19.17;;;5.82;;
55879;SDS011;41802;51.564;-1.838;2023-06-04T03:10:13;14.02;;;5.75;;
55879;SDS011;41802;51.564;-1.838;2023-06-04T03:12:43;21.77;;;5.90;;
55879;SDS011;41802;51.564;-1.838;2023-06-04T03:15:11;19.97;;;5.87;;
55879;SDS011;41802;51.564;-1.838;2023-06-04T03:17:40;16.90;;;6.25;;
55879;SDS011;41802;51.564;-1.838;2023-06-04T03:20:08;13.52;;;4.85;;
55879;SDS011;41802;51.564;-1.838;2023-06-04T03:22:36;13.95;;;4.88;;
55879;SDS011;41802;51.564;-1.838;2023-06-04T03:25:04;15.93;;;5.25;;
55879;SDS011;41802;51.564;-1.838;2023-06-04T03:27:32;16.17;;;4.90;;
55879;SDS011;41802;51.564;-1.838;2023-06-04T03:30:01;15.98;;;5.10;;
55879;SDS011;41802;51.564;-1.838;2023-06-04T03:32:29;14.30;;;4.75;;
55879;SDS011;41802;51.564;-1.838;2023-06-04T03:34:57;15.93;;;5.25;;
55879;SDS011;41802;51.564;-1.838;2023-06-04T03:37:25;16.50;;;5.20;;
55879;SDS011;41802;51.564;-1.838;2023-06-04T03:39:53;16.57;;;5.37;;
55879;SDS011;41802;51.564;-1.838;2023-06-04T03:42:20;17.73;;;5.80;;
55879;SDS011;41802;51.564;-1.838;2023-06-04T03:44:48;14.77;;;5.90;;
55879;SDS011;41802;51.564;-1.838;2023-06-04T03:47:17;15.15;;;5.10;;
55879;SDS011;41802;51.564;-1.838;2023-06-04T03:49:46;14.98;;;5.65;;
55879;SDS011;41802;51.564;-1.838;2023-06-04T03:52:14;15.47;;;5.63;;
55879;SDS011;41802;51.564;-1.838;2023-06-04T03:54:41;15.15;;;5.38;;
55879;SDS011;41802;51.564;-1.838;2023-06-04T03:57:09;18.92;;;5.95;;
55879;SDS011;41802;51.564;-1.838;2023-06-04T03:59:37;15.82;;;5.50;;
55879;SDS011;41802;51.564;-1.838;2023-06-04T04:02:05;17.67;;;5.82;;
55879;SDS011;41802;51.564;-1.838;2023-06-04T04:04:36;16.03;;;5.30;;
55879;SDS011;41802;51.564;-1.838;2023-06-04T04:07:04;13.23;;;5.25;;
55879;SDS011;41802;51.564;-1.838;2023-06-04T04:09:31;16.65;;;5.50;;
55879;SDS011;41802;51.564;-1.838;2023-06-04T04:11:59;13.30;;;5.55;;
55879;SDS011;41802;51.564;-1.838;2023-06-04T04:14:27;16.02;;;5.38;;
55879;SDS011;41802;51.564;-1.838;2023-06-04T04:16:55;14.37;;;5.27;;
55879;SDS011;41802;51.564;-1.838;2023-06-04T04:19:22;14.77;;;5.25;;
55879;SDS011;41802;51.564;-1.838;2023-06-04T04:21:51;13.57;;;5.00;;
55879;SDS011;41802;51.564;-1.838;2023-06-04T04:24:22;14.60;;;5.30;;
55879;SDS011;41802;51.564;-1.838;2023-06-04T04:26:50;13.77;;;5.10;;
55879;SDS011;41802;51.564;-1.838;2023-06-04T04:29:19;11.73;;;4.67;;
55879;SDS011;41802;51.564;-1.838;2023-06-04T04:31:48;13.20;;;5.28;;
55879;SDS011;41802;51.564;-1.838;2023-06-04T04:34:17;13.02;;;5.40;;
55879;SDS011;41802;51.564;-1.838;2023-06-04T04:36:47;14.85;;;5.20;;
55879;SDS011;41802;51.564;-1.838;2023-06-04T04:39:22;16.67;;;5.43;;
55879;SDS011;41802;51.564;-1.838;2023-06-04T04:41:50;17.33;;;5.13;;
55879;SDS011;41802;51.564;-1.838;2023-06-04T04:44:18;12.40;;;5.35;;
55879;SDS011;41802;51.564;-1.838;2023-06-04T04:46:47;15.32;;;5.25;;
55879;SDS011;41802;51.564;-1.838;2023-06-04T04:49:15;17.02;;;5.00;;
55879;SDS011;41802;51.564;-1.838;2023-06-04T04:51:43;15.68;;;5.00;;
55879;SDS011;41802;51.564;-1.838;2023-06-04T04:54:11;13.73;;;4.87;;
55879;SDS011;41802;51.564;-1.838;2023-06-04T04:56:41;17.95;;;4.90;;
55879;SDS011;41802;51.564;-1.838;2023-06-04T04:59:09;18.58;;;5.53;;
55879;SDS011;41802;51.564;-1.838;2023-06-04T05:01:36;13.40;;;4.95;;
55879;SDS011;41802;51.564;-1.838;2023-06-04T05:04:05;14.98;;;4.90;;
55879;SDS011;41802;51.564;-1.838;2023-06-04T05:06:35;16.63;;;5.37;;
55879;SDS011;41802;51.564;-1.838;2023-06-04T05:09:03;23.40;;;5.22;;
55879;SDS011;41802;51.564;-1.838;2023-06-04T05:11:31;13.45;;;4.63;;
55879;SDS011;41802;51.564;-1.838;2023-06-04T05:14:00;20.45;;;5.18;;
55879;SDS011;41802;51.564;-1.838;2023-06-04T05:16:28;13.88;;;4.53;;
55879;SDS011;41802;51.564;-1.838;2023-06-04T05:18:56;14.60;;;4.90;;
55879;SDS011;41802;51.564;-1.838;2023-06-04T05:21:25;17.45;;;4.85;;
55879;SDS011;41802;51.564;-1.838;2023-06-04T05:23:55;15.32;;;4.90;;
55879;SDS011;41802;51.564;-1.838;2023-06-04T05:26:23;13.55;;;4.60;;
55879;SDS011;41802;51.564;-1.838;2023-06-04T05:28:52;16.33;;;4.82;;
55879;SDS011;41802;51.564;-1.838;2023-06-04T05:31:26;12.37;;;4.30;;
55879;SDS011;41802;51.564;-1.838;2023-06-04T05:33:54;13.60;;;4.60;;
55879;SDS011;41802;51.564;-1.838;2023-06-04T05:36:22;15.07;;;4.97;;
55879;SDS011;41802;51.564;-1.838;2023-06-04T05:38:49;15.40;;;4.55;;
55879;SDS011;41802;51.564;-1.838;2023-06-04T05:41:23;18.08;;;4.65;;
55879;SDS011;41802;51.564;-1.838;2023-06-04T05:43:52;15.67;;;5.00;;
55879;SDS011;41802;51.564;-1.838;2023-06-04T05:46:20;10.32;;;4.18;;
55879;SDS011;41802;51.564;-1.838;2023-06-04T05:48:49;11.82;;;4.55;;
55879;SDS011;41802;51.564;-1.838;2023-06-04T05:51:18;14.10;;;4.18;;
55879;SDS011;41802;51.564;-1.838;2023-06-04T05:53:46;14.98;;;4.68;;
55879;SDS011;41802;51.564;-1.838;2023-06-04T05:56:14;15.30;;;4.60;;
55879;SDS011;41802;51.564;-1.838;2023-06-04T05:58:43;14.98;;;4.65;;
55879;SDS011;41802;51.564;-1.838;2023-06-04T06:01:11;17.48;;;5.25;;
55879;SDS011;41802;51.564;-1.838;2023-06-04T06:03:38;13.18;;;4.78;;
55879;SDS011;41802;51.564;-1.838;2023-06-04T06:06:11;11.63;;;4.20;;
55879;SDS011;41802;51.564;-1.838;2023-06-04T06:08:39;13.07;;;4.17;;
55879;SDS011;41802;51.564;-1.838;2023-06-04T06:11:07;15.27;;;4.53;;
55879;SDS011;41802;51.564;-1.838;2023-06-04T06:13:37;13.57;;;4.03;;
55879;SDS011;41802;51.564;-1.838;2023-06-04T06:16:05;12.30;;;3.90;;
55879;SDS011;41802;51.564;-1.838;2023-06-04T06:18:33;15.38;;;4.07;;
55879;SDS011;41802;51.564;-1.838;2023-06-04T06:21:01;12.73;;;3.93;;
55879;SDS011;41802;51.564;-1.838;2023-06-04T06:23:30;12.90;;;4.28;;
55879;SDS011;41802;51.564;-1.838;2023-06-04T06:25:58;12.27;;;3.92;;
55879;SDS011;41802;51.564;-1.838;2023-06-04T06:28:28;16.88;;;4.53;;
55879;SDS011;41802;51.564;-1.838;2023-06-04T06:30:55;10.95;;;4.07;;
55879;SDS011;41802;51.564;-1.838;2023-06-04T06:33:23;12.17;;;4.10;;
55879;SDS011;41802;51.564;-1.838;2023-06-04T06:35:51;14.27;;;4.13;;
55879;SDS011;41802;51.564;-1.838;2023-06-04T06:38:19;17.55;;;4.43;;
55879;SDS011;41802;51.564;-1.838;2023-06-04T06:40:52;16.85;;;4.22;;
55879;SDS011;41802;51.564;-1.838;2023-06-04T06:43:20;15.15;;;4.18;;
55879;SDS011;41802;51.564;-1.838;2023-06-04T06:45:48;12.83;;;3.57;;
55879;SDS011;41802;51.564;-1.838;2023-06-04T06:48:16;13.90;;;3.92;;
55879;SDS011;41802;51.564;-1.838;2023-06-04T06:50:43;14.60;;;4.55;;
55879;SDS011;41802;51.564;-1.838;2023-06-04T06:53:11;14.25;;;4.05;;
55879;SDS011;41802;51.564;-1.838;2023-06-04T06:55:40;14.95;;;4.78;;
55879;SDS011;41802;51.564;-1.838;2023-06-04T06:58:11;10.30;;;4.03;;
55879;SDS011;41802;51.564;-1.838;2023-06-04T07:00:38;18.77;;;4.55;;
55879;SDS011;41802;51.564;-1.838;2023-06-04T07:03:06;12.27;;;4.55;;
55879;SDS011;41802;51.564;-1.838;2023-06-04T07:05:35;11.15;;;3.38;;
55879;SDS011;41802;51.564;-1.838;2023-06-04T07:08:02;13.50;;;3.85;;
55879;SDS011;41802;51.564;-1.838;2023-06-04T07:10:30;10.90;;;3.57;;
55879;SDS011;41802;51.564;-1.838;2023-06-04T07:12:59;11.95;;;3.60;;
55879;SDS011;41802;51.564;-1.838;2023-06-04T07:15:28;13.60;;;3.85;;
55879;SDS011;41802;51.564;-1.838;2023-06-04T07:17:55;17.17;;;4.07;;
55879;SDS011;41802;51.564;-1.838;2023-06-04T07:20:23;10.68;;;3.58;;
55879;SDS011;41802;51.564;-1.838;2023-06-04T07:22:51;10.73;;;3.50;;
55879;SDS011;41802;51.564;-1.838;2023-06-04T07:25:19;10.70;;;3.33;;
55879;SDS011;41802;51.564;-1.838;2023-06-04T07:27:47;9.45;;;3.17;;
55879;SDS011;41802;51.564;-1.838;2023-06-04T07:30:17;12.27;;;3.05;;
55879;SDS011;41802;51.564;-1.838;2023-06-04T07:32:47;7.50;;;3.10;;
55879;SDS011;41802;51.564;-1.838;2023-06-04T07:35:16;10.03;;;3.10;;
55879;SDS011;41802;51.564;-1.838;2023-06-04T07:37:43;11.55;;;3.63;;
55879;SDS011;41802;51.564;-1.838;2023-06-04T07:40:14;12.27;;;3.17;;
55879;SDS011;41802;51.564;-1.838;2023-06-04T07:42:42;11.35;;;2.97;;
55879;SDS011;41802;51.564;-1.838;2023-06-04T07:45:10;11.13;;;2.65;;
55879;SDS011;41802;51.564;-1.838;2023-06-04T07:47:38;15.17;;;3.03;;
55879;SDS011;41802;51.564;-1.838;2023-06-04T07:50:08;9.93;;;3.17;;
55879;SDS011;41802;51.564;-1.838;2023-06-04T07:52:36;10.35;;;2.78;;
55879;SDS011;41802;51.564;-1.838;2023-06-04T07:55:04;10.10;;;3.10;;
55879;SDS011;41802;51.564;-1.838;2023-06-04T07:57:32;9.18;;;2.90;;
55879;SDS011;41802;51.564;-1.838;2023-06-04T08:00:00;10.07;;;3.40;;
55879;SDS011;41802;51.564;-1.838;2023-06-04T08:02:30;13.55;;;3.03;;
55879;SDS011;41802;51.564;-1.838;2023-06-04T08:04:58;9.85;;;2.40;;
55879;SDS011;41802;51.564;-1.838;2023-06-04T08:07:28;8.98;;;2.30;;
55879;SDS011;41802;51.564;-1.838;2023-06-04T08:09:56;9.43;;;2.38;;
55879;SDS011;41802;51.564;-1.838;2023-06-04T08:12:24;11.43;;;2.73;;
55879;SDS011;41802;51.564;-1.838;2023-06-04T08:14:52;11.13;;;2.17;;
55879;SDS011;41802;51.564;-1.838;2023-06-04T08:17:26;8.15;;;2.08;;
55879;SDS011;41802;51.564;-1.838;2023-06-04T08:19:56;8.60;;;1.90;;
55879;SDS011;41802;51.564;-1.838;2023-06-04T08:22:24;9.80;;;3.05;;
55879;SDS011;41802;51.564;-1.838;2023-06-04T08:24:55;7.57;;;1.73;;
55879;SDS011;41802;51.564;-1.838;2023-06-04T08:27:23;8.55;;;2.10;;
55879;SDS011;41802;51.564;-1.838;2023-06-04T08:29:52;10.57;;;1.95;;
55879;SDS011;41802;51.564;-1.838;2023-06-04T08:32:20;6.47;;;2.25;;
55879;SDS011;41802;51.564;-1.838;2023-06-04T08:34:48;10.32;;;1.50;;
55879;SDS011;41802;51.564;-1.838;2023-06-04T08:37:16;9.13;;;1.83;;
55879;SDS011;41802;51.564;-1.838;2023-06-04T08:39:44;12.25;;;1.65;;
55879;SDS011;41802;51.564;-1.838;2023-06-04T08:42:15;8.13;;;1.52;;
55879;SDS011;41802;51.564;-1.838;2023-06-04T08:44:46;9.63;;;2.42;;
55879;SDS011;41802;51.564;-1.838;2023-06-04T08:47:17;7.00;;;1.42;;
55879;SDS011;41802;51.564;-1.838;2023-06-04T08:49:49;6.53;;;1.37;;
55879;SDS011;41802;51.564;-1.838;2023-06-04T08:52:17;6.57;;;1.10;;
55879;SDS011;41802;51.564;-1.838;2023-06-04T08:54:48;6.47;;;1.60;;
55879;SDS011;41802;51.564;-1.838;2023-06-04T08:57:19;7.60;;;1.90;;
55879;SDS011;41802;51.564;-1.838;2023-06-04T08:59:47;6.07;;;1.42;;
55879;SDS011;41802;51.564;-1.838;2023-06-04T09:02:14;8.23;;;1.60;;
55879;SDS011;41802;51.564;-1.838;2023-06-04T09:04:43;6.35;;;1.20;;
55879;SDS011;41802;51.564;-1.838;2023-06-04T09:07:11;9.68;;;1.58;;
55879;SDS011;41802;51.564;-1.838;2023-06-04T09:09:40;10.45;;;2.08;;
55879;SDS011;41802;51.564;-1.838;2023-06-04T09:12:08;6.90;;;1.73;;
55879;SDS011;41802;51.564;-1.838;2023-06-04T09:14:38;7.23;;;1.77;;
55879;SDS011;41802;51.564;-1.838;2023-06-04T09:17:06;6.47;;;1.50;;
55879;SDS011;41802;51.564;-1.838;2023-06-04T09:19:34;11.77;;;2.17;;
55879;SDS011;41802;51.564;-1.838;2023-06-04T09:22:03;6.93;;;1.58;;
55879;SDS011;41802;51.564;-1.838;2023-06-04T09:24:40;6.32;;;1.20;;
55879;SDS011;41802;51.564;-1.838;2023-06-04T09:27:09;5.90;;;1.80;;
55879;SDS011;41802;51.564;-1.838;2023-06-04T09:29:38;8.32;;;1.60;;
55879;SDS011;41802;51.564;-1.838;2023-06-04T09:32:06;8.00;;;1.50;;
55879;SDS011;41802;51.564;-1.838;2023-06-04T09:34:34;7.60;;;1.40;;
55879;SDS011;41802;51.564;-1.838;2023-06-04T09:37:02;5.60;;;1.50;;
55879;SDS011;41802;51.564;-1.838;2023-06-04T09:39:41;6.97;;;1.37;;
55879;SDS011;41802;51.564;-1.838;2023-06-04T09:42:09;7.88;;;1.42;;
55879;SDS011;41802;51.564;-1.838;2023-06-04T09:44:43;8.13;;;1.77;;
55879;SDS011;41802;51.564;-1.838;2023-06-04T09:47:12;5.28;;;1.58;;
55879;SDS011;41802;51.564;-1.838;2023-06-04T09:49:40;9.32;;;1.30;;
55879;SDS011;41802;51.564;-1.838;2023-06-04T09:52:08;5.27;;;1.30;;
55879;SDS011;41802;51.564;-1.838;2023-06-04T09:54:36;7.35;;;1.50;;
55879;SDS011;41802;51.564;-1.838;2023-06-04T09:57:04;7.63;;;1.60;;
55879;SDS011;41802;51.564;-1.838;2023-06-04T09:59:33;7.32;;;2.08;;
55879;SDS011;41802;51.564;-1.838;2023-06-04T10:02:10;7.38;;;1.65;;
55879;SDS011;41802;51.564;-1.838;2023-06-04T10:04:39;8.43;;;1.33;;
55879;SDS011;41802;51.564;-1.838;2023-06-04T10:07:08;6.50;;;1.60;;
55879;SDS011;41802;51.564;-1.838;2023-06-04T10:09:37;5.90;;;1.50;;
55879;SDS011;41802;51.564;-1.838;2023-06-04T10:12:13;6.18;;;1.65;;
55879;SDS011;41802;51.564;-1.838;2023-06-04T10:14:47;8.02;;;1.70;;
55879;SDS011;41802;51.564;-1.838;2023-06-04T10:17:23;5.13;;;1.73;;
55879;SDS011;41802;51.564;-1.838;2023-06-04T10:19:52;4.82;;;1.42;;
55879;SDS011;41802;51.564;-1.838;2023-06-04T10:22:21;5.90;;;1.52;;
55879;SDS011;41802;51.564;-1.838;2023-06-04T10:24:48;5.25;;;1.40;;
55879;SDS011;41802;51.564;-1.838;2023-06-04T10:27:16;6.53;;;1.80;;
55879;SDS011;41802;51.564;-1.838;2023-06-04T10:29:46;8.30;;;1.77;;
55879;SDS011;41802;51.564;-1.838;2023-06-04T10:32:14;4.28;;;1.17;;
55879;SDS011;41802;51.564;-1.838;2023-06-04T10:34:43;7.80;;;1.40;;
55879;SDS011;41802;51.564;-1.838;2023-06-04T10:37:18;6.38;;;1.30;;
55879;SDS011;41802;51.564;-1.838;2023-06-04T10:39:50;4.60;;;1.20;;
55879;SDS011;41802;51.564;-1.838;2023-06-04T10:42:18;6.83;;;1.27;;
55879;SDS011;41802;51.564;-1.838;2023-06-04T10:44:48;5.43;;;1.58;;
55879;SDS011;41802;51.564;-1.838;2023-06-04T10:47:20;6.60;;;1.65;;
55879;SDS011;41802;51.564;-1.838;2023-06-04T10:49:51;6.47;;;1.60;;
55879;SDS011;41802;51.564;-1.838;2023-06-04T10:52:18;7.68;;;1.50;;
55879;SDS011;41802;51.564;-1.838;2023-06-04T10:54:46;6.00;;;1.20;;
55879;SDS011;41802;51.564;-1.838;2023-06-04T10:57:19;8.23;;;1.95;;
55879;SDS011;41802;51.564;-1.838;2023-06-04T10:59:54;6.90;;;1.80;;
55879;SDS011;41802;51.564;-1.838;2023-06-04T11:02:22;9.40;;;2.10;;
55879;SDS011;41802;51.564;-1.838;2023-06-04T11:04:59;8.20;;;1.60;;
55879;SDS011;41802;51.564;-1.838;2023-06-04T11:07:41;6.77;;;1.40;;
55879;SDS011;41802;51.564;-1.838;2023-06-04T11:10:11;7.40;;;1.50;;
55879;SDS011;41802;51.564;-1.838;2023-06-04T11:12:42;7.72;;;1.90;;
55879;SDS011;41802;51.564;-1.838;2023-06-04T11:15:10;6.05;;;2.20;;
55879;SDS011;41802;51.564;-1.838;2023-06-04T11:17:39;8.40;;;2.33;;
55879;SDS011;41802;51.564;-1.838;2023-06-04T11:20:17;9.37;;;2.30;;
55879;SDS011;41802;51.564;-1.838;2023-06-04T11:22:52;8.38;;;2.08;;
55879;SDS011;41802;51.564;-1.838;2023-06-04T11:25:20;6.70;;;2.08;;
55879;SDS011;41802;51.564;-1.838;2023-06-04T11:27:48;10.25;;;2.40;;
55879;SDS011;41802;51.564;-1.838;2023-06-04T11:30:17;5.50;;;2.00;;
55879;SDS011;41802;51.564;-1.838;2023-06-04T11:32:45;7.20;;;2.33;;
55879;SDS011;41802;51.564;-1.838;2023-06-04T11:35:13;5.88;;;1.55;;
55879;SDS011;41802;51.564;-1.838;2023-06-04T11:37:52;7.35;;;2.10;;
55879;SDS011;41802;51.564;-1.838;2023-06-04T11:40:20;7.28;;;2.10;;
55879;SDS011;41802;51.564;-1.838;2023-06-04T11:42:48;6.70;;;1.92;;
55879;SDS011;41802;51.564;-1.838;2023-06-04T11:45:17;5.47;;;1.50;;
55879;SDS011;41802;51.564;-1.838;2023-06-04T11:47:45;9.18;;;2.22;;
55879;SDS011;41802;51.564;-1.838;2023-06-04T11:50:14;6.25;;;1.80;;
55879;SDS011;41802;51.564;-1.838;2023-06-04T11:52:43;7.30;;;1.80;;
55879;SDS011;41802;51.564;-1.838;2023-06-04T11:55:11;5.65;;;1.80;;
55879;SDS011;41802;51.564;-1.838;2023-06-04T11:57:40;6.90;;;1.90;;
55879;SDS011;41802;51.564;-1.838;2023-06-04T12:00:08;6.88;;;2.15;;
55879;SDS011;41802;51.564;-1.838;2023-06-04T12:02:49;5.20;;;1.92;;
55879;SDS011;41802;51.564;-1.838;2023-06-04T12:05:20;5.50;;;1.60;;
55879;SDS011;41802;51.564;-1.838;2023-06-04T12:07:51;6.70;;;2.25;;
55879;SDS011;41802;51.564;-1.838;2023-06-04T12:10:19;5.97;;;1.57;;
55879;SDS011;41802;51.564;-1.838;2023-06-04T12:12:53;4.75;;;1.17;;
55879;SDS011;41802;51.564;-1.838;2023-06-04T12:15:22;6.32;;;1.98;;
55879;SDS011;41802;51.564;-1.838;2023-06-04T12:17:50;6.22;;;1.70;;
55879;SDS011;41802;51.564;-1.838;2023-06-04T12:20:18;5.32;;;1.73;;
55879;SDS011;41802;51.564;-1.838;2023-06-04T12:22:46;6.30;;;2.00;;
55879;SDS011;41802;51.564;-1.838;2023-06-04T12:25:24;5.10;;;1.40;;
55879;SDS011;41802;51.564;-1.838;2023-06-04T12:27:53;7.40;;;1.50;;
55879;SDS011;41802;51.564;-1.838;2023-06-04T12:30:21;4.50;;;1.40;;
55879;SDS011;41802;51.564;-1.838;2023-06-04T12:32:49;7.07;;;1.20;;
55879;SDS011;41802;51.564;-1.838;2023-06-04T12:35:19;5.13;;;1.53;;
55879;SDS011;41802;51.564;-1.838;2023-06-04T12:37:47;5.82;;;1.40;;
55879;SDS011;41802;51.564;-1.838;2023-06-04T12:40:14;4.32;;;1.48;;
55879;SDS011;41802;51.564;-1.838;2023-06-04T12:42:45;5.65;;;1.77;;
55879;SDS011;41802;51.564;-1.838;2023-06-04T12:45:12;6.95;;;2.08;;
55879;SDS011;41802;51.564;-1.838;2023-06-04T12:47:41;6.57;;;2.47;;
55879;SDS011;41802;51.564;-1.838;2023-06-04T12:50:10;7.40;;;2.22;;
55879;SDS011;41802;51.564;-1.838;2023-06-04T12:52:37;5.05;;;1.30;;
55879;SDS011;41802;51.564;-1.838;2023-06-04T12:55:05;5.65;;;1.80;;
55879;SDS011;41802;51.564;-1.838;2023-06-04T12:57:33;6.47;;;2.08;;
55879;SDS011;41802;51.564;-1.838;2023-06-04T13:00:03;8.13;;;2.07;;
55879;SDS011;41802;51.564;-1.838;2023-06-04T13:02:31;6.22;;;1.95;;
55879;SDS011;41802;51.564;-1.838;2023-06-04T13:04:59;5.78;;;1.70;;
55879;SDS011;41802;51.564;-1.838;2023-06-04T13:07:27;7.45;;;1.63;;
55879;SDS011;41802;51.564;-1.838;2023-06-04T13:09:54;5.78;;;1.67;;
55879;SDS011;41802;51.564;-1.838;2023-06-04T13:12:23;6.07;;;2.00;;
55879;SDS011;41802;51.564;-1.838;2023-06-04T13:14:50;5.82;;;2.20;;
55879;SDS011;41802;51.564;-1.838;2023-06-04T13:17:19;7.13;;;2.25;;
55879;SDS011;41802;51.564;-1.838;2023-06-04T13:19:48;5.30;;;1.95;;
55879;SDS011;41802;51.564;-1.838;2023-06-04T13:22:20;5.75;;;2.10;;
55879;SDS011;41802;51.564;-1.838;2023-06-04T13:24:48;5.83;;;2.00;;
55879;SDS011;41802;51.564;-1.838;2023-06-04T13:27:16;5.72;;;1.67;;
55879;SDS011;41802;51.564;-1.838;2023-06-04T13:29:43;6.72;;;1.80;;
55879;SDS011;41802;51.564;-1.838;2023-06-04T13:32:11;6.10;;;1.70;;
55879;SDS011;41802;51.564;-1.838;2023-06-04T13:34:41;7.75;;;2.13;;
55879;SDS011;41802;51.564;-1.838;2023-06-04T13:37:09;6.73;;;2.20;;
55879;SDS011;41802;51.564;-1.838;2023-06-04T13:39:38;6.05;;;2.20;;
55879;SDS011;41802;51.564;-1.838;2023-06-04T13:42:06;6.40;;;2.30;;
55879;SDS011;41802;51.564;-1.838;2023-06-04T13:44:34;6.28;;;2.33;;
55879;SDS011;41802;51.564;-1.838;2023-06-04T13:47:02;7.90;;;2.05;;
55879;SDS011;41802;51.564;-1.838;2023-06-04T13:49:32;7.90;;;2.10;;
55879;SDS011;41802;51.564;-1.838;2023-06-04T13:52:01;5.35;;;2.00;;
55879;SDS011;41802;51.564;-1.838;2023-06-04T13:54:29;7.13;;;2.25;;
55879;SDS011;41802;51.564;-1.838;2023-06-04T13:57:00;6.57;;;2.03;;
55879;SDS011;41802;51.564;-1.838;2023-06-04T13:59:28;8.85;;;2.40;;
55879;SDS011;41802;51.564;-1.838;2023-06-04T14:01:56;7.63;;;2.00;;
55879;SDS011;41802;51.564;-1.838;2023-06-04T14:04:24;6.80;;;1.70;;
55879;SDS011;41802;51.564;-1.838;2023-06-04T14:06:52;6.90;;;2.38;;
55879;SDS011;41802;51.564;-1.838;2023-06-04T14:09:23;6.45;;;2.42;;
55879;SDS011;41802;51.564;-1.838;2023-06-04T14:11:50;7.65;;;2.00;;
55879;SDS011;41802;51.564;-1.838;2023-06-04T14:14:18;5.57;;;1.93;;
55879;SDS011;41802;51.564;-1.838;2023-06-04T14:16:46;7.00;;;2.67;;
55879;SDS011;41802;51.564;-1.838;2023-06-04T14:19:14;6.10;;;1.90;;
55879;SDS011;41802;51.564;-1.838;2023-06-04T14:21:42;5.25;;;2.10;;
55879;SDS011;41802;51.564;-1.838;2023-06-04T14:24:11;6.13;;;2.08;;
55879;SDS011;41802;51.564;-1.838;2023-06-04T14:26:40;4.90;;;2.00;;
55879;SDS011;41802;51.564;-1.838;2023-06-04T14:29:10;8.32;;;2.20;;
55879;SDS011;41802;51.564;-1.838;2023-06-04T14:31:38;5.57;;;1.92;;
55879;SDS011;41802;51.564;-1.838;2023-06-04T14:34:06;7.20;;;2.22;;
55879;SDS011;41802;51.564;-1.838;2023-06-04T14:36:35;5.72;;;1.85;;
55879;SDS011;41802;51.564;-1.838;2023-06-04T14:39:03;6.90;;;2.37;;
55879;SDS011;41802;51.564;-1.838;2023-06-04T14:41:30;6.22;;;2.13;;